Portada
METAR-TAF:

METAR-TAF

Aeroports :

Besiers, França

latitud: 43-19N, longitud: 003-21E, altitud: 17 m

Observació

L'informe es va fer fa 38 minuts, a les 17:00 UTC
Vent 5 kt del Nord
Temperatura 8°C
Humitat 66%
Pressió 1008 hPa
Visibilitat 10 km o més
sense núvols per sota de 1500 mi sense presència de cumulonimbus.

METAR: LFMU 171700Z AUTO 36005KT CAVOK 08/02 Q1008 BECMG 30010KT

Hora: 18:38 (17:38 UTC)

Pronòstic

L'informe es va fer fa 3 hores i 38 minuts, a les 14:00 UTC
Pronòstic vàlid del 17 a les 15 UTC al 18 a les 15 UTC
Vent 10 kt del Oest/Nord-Oest
Visibilitat 10 km o més
sense núvols per sota de 1500 mi sense presència de cumulonimbus.
Temporalment
l' 17 a les 22 UTC al 18 a les 04 UTC
Vent 5 kt amb direcció variable
Cel ennuvolat a una alçada de 2000 ft
pluja
Evolucionant progressivament
l' 18 a les 10 UTC al 18 a les 12 UTC
Vent 15 kt del Nord-Oest amb ràfegues de 25 kt

TAF: LFMU 171400Z 1715/1815 30010KT CAVOK TEMPO 1722/1804 VRB05KT RA BKN020 BECMG 1810/1812 32015G25KT

Observacions i pronòstics meteorològics de més de 4000 aeroports (METAR i TAF).

Les estacions disponibles són els punts grocs i vermells al mapa.

Posi el ratolí al punt desitjat per veure el nom de l'estació.

Feu clic per veure les observacions i els pronòstics meteorològics.

Per canviar el mapa: feu clic els botons verds amb una creu de color negre per apropar; al botó verd amb un guió per allunyar la imatge; o en les fletxes verdes per a mapes adjacents.


METAR-TAF: